My Meet Scores
Kali Pomerenke, Patti Dunne's School Of Gymnastics - MyMeetScores.com
Top100 | Top Teams | Upcoming Meets | Completed Meets | Latest | Add Scores | Help| Support | Bookmark and Share

Kali Pomerenke, Patti Dunne's School Of Gymnastics
Personal Bests
LevelVault BarsBeamFloorAA
39.3509.250 9.2509.27535.450
49.1509.700 9.3509.50036.750
59.1009.275 9.4509.57536.075
78.5509.100 9.3508.87535.875
Meet Scores
Date Meet Team Session Level Division Vault Bars Beam Floor AA
2019-12-06 Rhode Island Invitational Patti Dunne's School Of Gymnastics GF1 7 child 8.550 8 9.100 2 9.350 3 8.875 5 35.875 3
2019-02-15 Presidential Classic Patti Dunne's School Of Gymnastics B12 5 L5_Grp2 8.750 7T 8.325 9 9.150 4 8.875 10 35.100 7
2019-02-08 Team Challenge 2019 Patti Dunne's School Of Gymnastics B4 5 Jr B 8.850 9 8.700 5 8.200 13T 9.575 2 35.325 6
2019-02-01 State Level 4&5 Patti Dunne's School Of Gymnastics 6 5 10 Yrs 9.100 16T 9.125 4T 8.375 24 9.275 7 35.875 8
2019-01-26 Manhattan Classic Patti Dunne's School Of Gymnastics 5CP 5 Child B 8.650 13 9.275 4 9.450 2T 8.700 10 36.075 5
2019-01-18 DGS Northeast Invite Patti Dunne's School Of Gymnastics 5A 5 Ch A 8.825 4 8.350 3 9.100 1T 8.550 5 34.825 1
2019-01-10 Little Boston Invitational Patti Dunne's School Of Gymnastics D04 5 CH 8.500 22T 8.100 15T 7.900 25T 8.750 13T 33.250 27T
2018-12-14 Shen's New England Classic Patti Dunne's School Of Gymnastics 01 5 CH B 7.850 13T 8.500 5 8.875 1T 8.950 3 34.175 6
2018-12-08 American Gymnastics Invitational Patti Dunne's School Of Gymnastics 6 5 Child A 8.700 6 9.150 1 8.350 6 9.100 2 35.300 2
2018-11-17 2018 Connecticut Judge's Cup Patti Dunne's School Of Gymnastics 5 5 8-10 yrs. 8.700 19T 8.750 6 8.450 25 9.000 15T 34.900 11
2018-02-16 Chelsea Piers Winter Challenge Patti Dunne's School Of Gymnastics F-4 4 Junior 9.075 12 9.700 1 8.650 14 9.300 4 36.725 5
2018-02-09 Team Challenge 2018 Patti Dunne's School Of Gymnastics 08B 4 Jr B 9.150 6T 8.775 5 9.125 4T 9.050 5T 36.100 4
2018-02-03 Level 4 & 5 States Patti Dunne's School Of Gymnastics 2 4 9 B 8.775 34 8.875 17T 9.350 21T 9.200 11T 36.200 16T
2018-01-19 Kinetic Kids Invitational Patti Dunne's School Of Gymnastics 2 4 Jr A 9.100 1T 9.400 2 8.900 4 9.350 1 36.750 1
2018-01-12 DGS Invitational Patti Dunne's School Of Gymnastics 5B 4 8-9 yrs. 8.700 4T 7.850 7 9.050 2 9.125 1 34.725 5
2017-11-30 Rhode Island Invitational Patti Dunne's School Of Gymnastics BF1 4 Intermedia 8.550 5 8.900 3 8.400 9 9.500 1 35.350 2
2017-02-18 Chelsea Piers Winter Challenge Patti Dunne's School Of Gymnastics C-6 4 CH 8.100 10T 8.000 10 8.300 20 8.725 12T 33.125 12
2017-02-10 Team Challenge 2017 Patti Dunne's School Of Gymnastics 02B 4 Child 8.550 4 8.550 5 9.250 5 8.600 7 34.950 5
2017-02-04 2017 Connecticut Level 4 & 5 State Meets Patti Dunne's School Of Gymnastics 3 4 8 A 7.750 12 8.700 5 7.600 14 8.500 11T 32.550 12
2017-01-27 24th Annual American Invitational Patti Dunne's School Of Gymnastics 5B 4 Child 7.900 22 9.300 15T 9.100 14 8.125 19 34.425 18
2017-01-13 Northeast Invitational Patti Dunne's School Of Gymnastics 5 4 7-8 yrs. 8.150 7 8.900 2 8.800 5T 8.900 5 34.750 5
2016-12-02 Rhode Island Invitational Patti Dunne's School Of Gymnastics SF2 4 Child 8.000 12 8.525 5 8.200 12 8.850 9 33.575 10
2016-11-05 2016 Connecticut Judges Cup Patti Dunne's School Of Gymnastics 5 4 AllAges 8.000 27T 9.050 11 8.375 33T 8.400 15T 33.825 20
2016-04-02 2016 Connecticut Level 6 States & Level 3 State Cup Patti Dunne's School Of Gymnastics 7 3 N/A 9.100 25T 8.925 11 7.050 61 9.275 7T 34.350 37
2016-02-13 Chelsea Piers Winter Challenge Patti Dunne's School Of Gymnastics F5 3 CH A 8.700 8T 9.250 8 8.375 13 8.175 15T 34.500 11
2016-01-22 Sand Dollar/Whitlow Invitational Patti Dunne's School Of Gymnastics A03 3 Jr A 9.350 3T 8.750 11 8.200 8 8.900 8 35.200 7
2016-01-15 DGS Invitational Patti Dunne's School Of Gymnastics A11 3 6-7 yrs. 8.800 6 8.500 4 9.250 5 8.900 4 35.450 5
2015-12-04 Rhode Island Invitational Patti Dunne's School Of Gymnastics WS3 3 Child 9.150 5 8.750 6 0.000 12T 8.450 5 35.400 3
2015-11-21 Pilgrim Invitational Patti Dunne's School Of Gymnastics 6 3 Child 9.250 4T 7.650 6 8.950 5 9.050 3T 34.900 5
2015-02-13 Team Challege 2015 Patti Dunne's School Of Gymnastics B1 3 Junior 6.000 18 7.850 12 7.500 18 8.000 15 29.350 18
2015-01-22 Sand Dollar/ Whitlow Invitational Patti Dunne's School Of Gymnastics A04 3 Ch A 8.475 16 6.400 18 7.375 15 7.650 17 29.900 17
Get your scores on
a t-shirt, pin, or hoodie

Order by December 13

www.lazysuits.com